sensor_id;sensor_type;location;lat;lon;timestamp;P1;durP1;ratioP1;P2;durP2;ratioP2
7965;SDS011;4028;43.272;26.932;2023-02-28T00:00:12;4.17;;;3.87;;
7965;SDS011;4028;43.272;26.932;2023-02-28T00:02:42;3.50;;;3.20;;
7965;SDS011;4028;43.272;26.932;2023-02-28T00:05:09;3.97;;;3.07;;
7965;SDS011;4028;43.272;26.932;2023-02-28T00:07:36;4.67;;;3.20;;
7965;SDS011;4028;43.272;26.932;2023-02-28T00:10:03;3.00;;;2.70;;
7965;SDS011;4028;43.272;26.932;2023-02-28T00:12:31;4.23;;;3.33;;
7965;SDS011;4028;43.272;26.932;2023-02-28T00:14:57;4.13;;;3.30;;
7965;SDS011;4028;43.272;26.932;2023-02-28T00:17:22;3.63;;;3.33;;
7965;SDS011;4028;43.272;26.932;2023-02-28T00:19:48;4.77;;;3.57;;
7965;SDS011;4028;43.272;26.932;2023-02-28T00:22:15;4.17;;;3.37;;
7965;SDS011;4028;43.272;26.932;2023-02-28T00:24:42;4.33;;;3.40;;
7965;SDS011;4028;43.272;26.932;2023-02-28T00:27:07;4.50;;;4.10;;
7965;SDS011;4028;43.272;26.932;2023-02-28T00:29:33;4.00;;;3.70;;
7965;SDS011;4028;43.272;26.932;2023-02-28T00:31:59;4.10;;;3.53;;
7965;SDS011;4028;43.272;26.932;2023-02-28T00:34:24;3.73;;;3.37;;
7965;SDS011;4028;43.272;26.932;2023-02-28T00:36:50;4.13;;;3.73;;
7965;SDS011;4028;43.272;26.932;2023-02-28T00:39:15;3.90;;;3.60;;
7965;SDS011;4028;43.272;26.932;2023-02-28T00:41:41;4.17;;;3.50;;
7965;SDS011;4028;43.272;26.932;2023-02-28T00:44:07;3.90;;;3.50;;
7965;SDS011;4028;43.272;26.932;2023-02-28T00:46:32;4.27;;;3.83;;
7965;SDS011;4028;43.272;26.932;2023-02-28T00:48:58;4.10;;;3.80;;
7965;SDS011;4028;43.272;26.932;2023-02-28T00:51:23;4.80;;;4.33;;
7965;SDS011;4028;43.272;26.932;2023-02-28T00:53:49;4.20;;;3.57;;
7965;SDS011;4028;43.272;26.932;2023-02-28T00:56:14;4.90;;;3.73;;
7965;SDS011;4028;43.272;26.932;2023-02-28T00:58:40;4.50;;;4.10;;
7965;SDS011;4028;43.272;26.932;2023-02-28T01:01:05;4.47;;;4.07;;
7965;SDS011;4028;43.272;26.932;2023-02-28T01:03:31;3.97;;;3.57;;
7965;SDS011;4028;43.272;26.932;2023-02-28T01:05:57;3.97;;;3.67;;
7965;SDS011;4028;43.272;26.932;2023-02-28T01:08:22;4.60;;;4.20;;
7965;SDS011;4028;43.272;26.932;2023-02-28T01:10:48;4.10;;;3.80;;
7965;SDS011;4028;43.272;26.932;2023-02-28T01:13:14;4.43;;;4.03;;
7965;SDS011;4028;43.272;26.932;2023-02-28T01:15:41;4.80;;;4.40;;
7965;SDS011;4028;43.272;26.932;2023-02-28T01:18:11;4.60;;;4.20;;
7965;SDS011;4028;43.272;26.932;2023-02-28T01:20:37;4.57;;;4.17;;
7965;SDS011;4028;43.272;26.932;2023-02-28T01:23:03;4.70;;;4.20;;
7965;SDS011;4028;43.272;26.932;2023-02-28T01:25:28;4.63;;;4.23;;
7965;SDS011;4028;43.272;26.932;2023-02-28T01:27:54;4.57;;;4.17;;
7965;SDS011;4028;43.272;26.932;2023-02-28T01:30:19;5.13;;;4.67;;
7965;SDS011;4028;43.272;26.932;2023-02-28T01:32:45;4.90;;;4.50;;
7965;SDS011;4028;43.272;26.932;2023-02-28T01:35:10;4.80;;;4.40;;
7965;SDS011;4028;43.272;26.932;2023-02-28T01:37:36;4.80;;;4.40;;
7965;SDS011;4028;43.272;26.932;2023-02-28T01:40:01;4.70;;;4.27;;
7965;SDS011;4028;43.272;26.932;2023-02-28T01:42:27;4.07;;;3.77;;
7965;SDS011;4028;43.272;26.932;2023-02-28T01:47:50;4.70;;;4.30;;
7965;SDS011;4028;43.272;26.932;2023-02-28T01:50:23;4.20;;;3.90;;
7965;SDS011;4028;43.272;26.932;2023-02-28T01:52:51;5.10;;;4.60;;
7965;SDS011;4028;43.272;26.932;2023-02-28T01:55:24;4.63;;;4.23;;
7965;SDS011;4028;43.272;26.932;2023-02-28T01:57:55;4.80;;;4.40;;
7965;SDS011;4028;43.272;26.932;2023-02-28T02:00:24;5.03;;;4.53;;
7965;SDS011;4028;43.272;26.932;2023-02-28T02:02:54;4.50;;;4.10;;
7965;SDS011;4028;43.272;26.932;2023-02-28T02:05:26;4.50;;;4.10;;
7965;SDS011;4028;43.272;26.932;2023-02-28T02:07:56;4.30;;;3.90;;
7965;SDS011;4028;43.272;26.932;2023-02-28T02:10:29;4.50;;;4.10;;
7965;SDS011;4028;43.272;26.932;2023-02-28T02:18:26;4.60;;;4.20;;
7965;SDS011;4028;43.272;26.932;2023-02-28T02:40:30;4.67;;;4.20;;
7965;SDS011;4028;43.272;26.932;2023-02-28T02:43:08;4.07;;;3.77;;
7965;SDS011;4028;43.272;26.932;2023-02-28T02:45:50;4.53;;;4.17;;
7965;SDS011;4028;43.272;26.932;2023-02-28T02:48:21;5.10;;;4.50;;
7965;SDS011;4028;43.272;26.932;2023-02-28T02:50:55;4.60;;;4.30;;
7965;SDS011;4028;43.272;26.932;2023-02-28T02:53:29;5.03;;;4.60;;
7965;SDS011;4028;43.272;26.932;2023-02-28T02:55:58;5.27;;;4.70;;
7965;SDS011;4028;43.272;26.932;2023-02-28T02:58:28;5.97;;;5.03;;
7965;SDS011;4028;43.272;26.932;2023-02-28T03:01:07;6.43;;;5.23;;
7965;SDS011;4028;43.272;26.932;2023-02-28T03:03:35;5.43;;;4.93;;
7965;SDS011;4028;43.272;26.932;2023-02-28T03:06:02;5.13;;;4.63;;
7965;SDS011;4028;43.272;26.932;2023-02-28T03:08:29;5.93;;;4.63;;
7965;SDS011;4028;43.272;26.932;2023-02-28T03:10:59;4.90;;;4.47;;
7965;SDS011;4028;43.272;26.932;2023-02-28T03:22:23;5.17;;;4.70;;
7965;SDS011;4028;43.272;26.932;2023-02-28T03:28:20;5.07;;;4.67;;
7965;SDS011;4028;43.272;26.932;2023-02-28T03:33:20;4.90;;;4.50;;
7965;SDS011;4028;43.272;26.932;2023-02-28T03:35:56;4.50;;;4.10;;
7965;SDS011;4028;43.272;26.932;2023-02-28T03:41:11;4.60;;;4.23;;
7965;SDS011;4028;43.272;26.932;2023-02-28T03:43:44;4.77;;;4.37;;
7965;SDS011;4028;43.272;26.932;2023-02-28T03:46:14;4.10;;;3.80;;
7965;SDS011;4028;43.272;26.932;2023-02-28T03:48:51;5.27;;;4.87;;
7965;SDS011;4028;43.272;26.932;2023-02-28T03:51:22;4.40;;;4.00;;
7965;SDS011;4028;43.272;26.932;2023-02-28T03:53:52;4.70;;;4.30;;
7965;SDS011;4028;43.272;26.932;2023-02-28T03:56:22;4.77;;;4.33;;
7965;SDS011;4028;43.272;26.932;2023-02-28T04:01:34;4.97;;;4.57;;
7965;SDS011;4028;43.272;26.932;2023-02-28T04:04:03;4.77;;;4.37;;
7965;SDS011;4028;43.272;26.932;2023-02-28T04:06:30;4.70;;;4.30;;
7965;SDS011;4028;43.272;26.932;2023-02-28T04:08:58;5.00;;;4.60;;
7965;SDS011;4028;43.272;26.932;2023-02-28T04:11:26;4.67;;;4.27;;
7965;SDS011;4028;43.272;26.932;2023-02-28T04:13:57;4.53;;;4.13;;
7965;SDS011;4028;43.272;26.932;2023-02-28T04:16:23;5.13;;;4.73;;
7965;SDS011;4028;43.272;26.932;2023-02-28T04:18:49;4.60;;;4.20;;
7965;SDS011;4028;43.272;26.932;2023-02-28T04:21:14;5.50;;;5.00;;
7965;SDS011;4028;43.272;26.932;2023-02-28T04:23:40;5.30;;;4.80;;
7965;SDS011;4028;43.272;26.932;2023-02-28T04:26:05;4.93;;;4.53;;
7965;SDS011;4028;43.272;26.932;2023-02-28T04:28:32;5.40;;;4.90;;
7965;SDS011;4028;43.272;26.932;2023-02-28T04:30:59;5.53;;;5.03;;
7965;SDS011;4028;43.272;26.932;2023-02-28T04:33:27;5.83;;;5.33;;
7965;SDS011;4028;43.272;26.932;2023-02-28T04:38:32;5.67;;;5.17;;
7965;SDS011;4028;43.272;26.932;2023-02-28T04:40:59;5.73;;;5.23;;
7965;SDS011;4028;43.272;26.932;2023-02-28T04:43:26;5.83;;;5.33;;
7965;SDS011;4028;43.272;26.932;2023-02-28T04:45:52;5.77;;;5.30;;
7965;SDS011;4028;43.272;26.932;2023-02-28T04:48:27;5.77;;;5.27;;
7965;SDS011;4028;43.272;26.932;2023-02-28T04:50:54;5.10;;;4.70;;
7965;SDS011;4028;43.272;26.932;2023-02-28T04:53:20;6.23;;;5.70;;
7965;SDS011;4028;43.272;26.932;2023-02-28T04:55:46;5.40;;;5.00;;
7965;SDS011;4028;43.272;26.932;2023-02-28T04:58:12;7.27;;;6.00;;
7965;SDS011;4028;43.272;26.932;2023-02-28T05:00:38;5.73;;;5.23;;
7965;SDS011;4028;43.272;26.932;2023-02-28T05:03:04;5.53;;;5.03;;
7965;SDS011;4028;43.272;26.932;2023-02-28T05:05:29;5.83;;;5.33;;
7965;SDS011;4028;43.272;26.932;2023-02-28T05:07:55;5.57;;;5.07;;
7965;SDS011;4028;43.272;26.932;2023-02-28T05:10:23;5.57;;;5.13;;
7965;SDS011;4028;43.272;26.932;2023-02-28T05:12:49;6.07;;;5.60;;
7965;SDS011;4028;43.272;26.932;2023-02-28T05:15:15;5.63;;;5.13;;
7965;SDS011;4028;43.272;26.932;2023-02-28T05:17:42;5.63;;;5.20;;
7965;SDS011;4028;43.272;26.932;2023-02-28T05:20:08;5.40;;;5.00;;
7965;SDS011;4028;43.272;26.932;2023-02-28T05:22:38;5.90;;;5.40;;
7965;SDS011;4028;43.272;26.932;2023-02-28T05:25:05;5.53;;;5.13;;
7965;SDS011;4028;43.272;26.932;2023-02-28T05:27:31;6.43;;;5.90;;
7965;SDS011;4028;43.272;26.932;2023-02-28T05:29:56;6.30;;;5.70;;
7965;SDS011;4028;43.272;26.932;2023-02-28T05:32:22;6.30;;;5.70;;
7965;SDS011;4028;43.272;26.932;2023-02-28T05:34:47;6.67;;;6.10;;
7965;SDS011;4028;43.272;26.932;2023-02-28T05:37:13;5.73;;;5.23;;
7965;SDS011;4028;43.272;26.932;2023-02-28T05:39:40;5.70;;;5.23;;
7965;SDS011;4028;43.272;26.932;2023-02-28T05:42:06;6.17;;;5.43;;
7965;SDS011;4028;43.272;26.932;2023-02-28T05:44:32;5.80;;;5.30;;
7965;SDS011;4028;43.272;26.932;2023-02-28T05:46:57;5.67;;;5.17;;
7965;SDS011;4028;43.272;26.932;2023-02-28T05:49:23;5.57;;;5.07;;
7965;SDS011;4028;43.272;26.932;2023-02-28T05:51:48;5.73;;;5.23;;
7965;SDS011;4028;43.272;26.932;2023-02-28T05:54:14;6.33;;;5.77;;
7965;SDS011;4028;43.272;26.932;2023-02-28T05:56:39;6.13;;;5.63;;
7965;SDS011;4028;43.272;26.932;2023-02-28T05:59:08;5.50;;;5.10;;
7965;SDS011;4028;43.272;26.932;2023-02-28T06:04:13;6.20;;;5.60;;
7965;SDS011;4028;43.272;26.932;2023-02-28T06:06:43;6.20;;;5.70;;
7965;SDS011;4028;43.272;26.932;2023-02-28T06:09:09;6.47;;;5.80;;
7965;SDS011;4028;43.272;26.932;2023-02-28T06:11:35;6.33;;;5.80;;
7965;SDS011;4028;43.272;26.932;2023-02-28T06:14:01;7.20;;;6.50;;
7965;SDS011;4028;43.272;26.932;2023-02-28T06:16:28;7.20;;;6.60;;
7965;SDS011;4028;43.272;26.932;2023-02-28T06:18:59;10.10;;;9.23;;
7965;SDS011;4028;43.272;26.932;2023-02-28T06:21:27;8.73;;;8.00;;
7965;SDS011;4028;43.272;26.932;2023-02-28T06:23:53;7.37;;;6.67;;
7965;SDS011;4028;43.272;26.932;2023-02-28T06:26:20;8.33;;;7.53;;
7965;SDS011;4028;43.272;26.932;2023-02-28T06:28:46;9.13;;;8.33;;
7965;SDS011;4028;43.272;26.932;2023-02-28T06:31:13;8.20;;;7.50;;
7965;SDS011;4028;43.272;26.932;2023-02-28T06:33:40;9.23;;;8.30;;
7965;SDS011;4028;43.272;26.932;2023-02-28T06:36:06;10.20;;;9.07;;
7965;SDS011;4028;43.272;26.932;2023-02-28T06:38:33;8.97;;;8.13;;
7965;SDS011;4028;43.272;26.932;2023-02-28T06:40:59;9.53;;;8.63;;
7965;SDS011;4028;43.272;26.932;2023-02-28T06:43:27;9.30;;;8.40;;
7965;SDS011;4028;43.272;26.932;2023-02-28T06:45:54;8.77;;;7.87;;
7965;SDS011;4028;43.272;26.932;2023-02-28T06:48:21;8.73;;;7.93;;
7965;SDS011;4028;43.272;26.932;2023-02-28T06:50:47;8.53;;;7.73;;
7965;SDS011;4028;43.272;26.932;2023-02-28T06:53:13;7.63;;;6.93;;
7965;SDS011;4028;43.272;26.932;2023-02-28T06:55:39;7.13;;;6.53;;
7965;SDS011;4028;43.272;26.932;2023-02-28T06:58:04;7.57;;;6.87;;
7965;SDS011;4028;43.272;26.932;2023-02-28T07:00:42;9.07;;;8.30;;
7965;SDS011;4028;43.272;26.932;2023-02-28T07:03:09;7.83;;;7.03;;
7965;SDS011;4028;43.272;26.932;2023-02-28T07:05:35;8.80;;;7.90;;
7965;SDS011;4028;43.272;26.932;2023-02-28T07:08:02;8.83;;;8.03;;
7965;SDS011;4028;43.272;26.932;2023-02-28T07:10:28;10.00;;;9.00;;
7965;SDS011;4028;43.272;26.932;2023-02-28T07:12:54;10.40;;;9.00;;
7965;SDS011;4028;43.272;26.932;2023-02-28T07:15:19;12.90;;;9.00;;
7965;SDS011;4028;43.272;26.932;2023-02-28T07:17:45;9.70;;;8.70;;
7965;SDS011;4028;43.272;26.932;2023-02-28T07:20:10;8.93;;;8.10;;
7965;SDS011;4028;43.272;26.932;2023-02-28T07:22:36;8.90;;;8.00;;
7965;SDS011;4028;43.272;26.932;2023-02-28T07:25:03;8.20;;;7.40;;
7965;SDS011;4028;43.272;26.932;2023-02-28T07:27:29;8.37;;;7.57;;
7965;SDS011;4028;43.272;26.932;2023-02-28T07:29:55;7.77;;;6.97;;
7965;SDS011;4028;43.272;26.932;2023-02-28T07:32:20;7.87;;;7.20;;
7965;SDS011;4028;43.272;26.932;2023-02-28T07:34:46;7.97;;;7.27;;
7965;SDS011;4028;43.272;26.932;2023-02-28T07:37:11;9.57;;;8.47;;
7965;SDS011;4028;43.272;26.932;2023-02-28T07:39:37;9.10;;;8.03;;
7965;SDS011;4028;43.272;26.932;2023-02-28T07:42:05;9.87;;;8.93;;
7965;SDS011;4028;43.272;26.932;2023-02-28T07:44:34;14.30;;;12.50;;
7965;SDS011;4028;43.272;26.932;2023-02-28T07:47:00;11.10;;;10.07;;
7965;SDS011;4028;43.272;26.932;2023-02-28T07:49:25;11.03;;;9.87;;
7965;SDS011;4028;43.272;26.932;2023-02-28T07:51:51;11.97;;;10.50;;
7965;SDS011;4028;43.272;26.932;2023-02-28T07:54:16;11.83;;;10.13;;
7965;SDS011;4028;43.272;26.932;2023-02-28T07:56:42;10.57;;;9.57;;
7965;SDS011;4028;43.272;26.932;2023-02-28T07:59:07;11.23;;;10.13;;
7965;SDS011;4028;43.272;26.932;2023-02-28T08:01:34;13.37;;;11.43;;
7965;SDS011;4028;43.272;26.932;2023-02-28T08:03:59;13.70;;;11.23;;
7965;SDS011;4028;43.272;26.932;2023-02-28T08:06:25;12.60;;;10.57;;
7965;SDS011;4028;43.272;26.932;2023-02-28T08:08:51;12.67;;;10.73;;
7965;SDS011;4028;43.272;26.932;2023-02-28T08:11:18;10.90;;;9.80;;
7965;SDS011;4028;43.272;26.932;2023-02-28T08:13:44;10.60;;;9.60;;
7965;SDS011;4028;43.272;26.932;2023-02-28T08:16:10;10.90;;;9.80;;
7965;SDS011;4028;43.272;26.932;2023-02-28T08:18:40;12.47;;;11.17;;
7965;SDS011;4028;43.272;26.932;2023-02-28T08:21:09;11.93;;;10.73;;
7965;SDS011;4028;43.272;26.932;2023-02-28T08:23:35;16.23;;;11.00;;
7965;SDS011;4028;43.272;26.932;2023-02-28T08:26:01;12.73;;;11.37;;
7965;SDS011;4028;43.272;26.932;2023-02-28T08:28:27;11.23;;;10.07;;
7965;SDS011;4028;43.272;26.932;2023-02-28T08:30:53;12.50;;;10.57;;
7965;SDS011;4028;43.272;26.932;2023-02-28T08:33:19;12.17;;;10.97;;
7965;SDS011;4028;43.272;26.932;2023-02-28T08:35:44;11.07;;;10.07;;
7965;SDS011;4028;43.272;26.932;2023-02-28T08:38:10;12.23;;;10.97;;
7965;SDS011;4028;43.272;26.932;2023-02-28T08:40:35;11.63;;;10.50;;
7965;SDS011;4028;43.272;26.932;2023-02-28T08:43:01;12.33;;;11.03;;
7965;SDS011;4028;43.272;26.932;2023-02-28T08:45:26;11.63;;;10.43;;
7965;SDS011;4028;43.272;26.932;2023-02-28T08:47:53;11.30;;;10.13;;
7965;SDS011;4028;43.272;26.932;2023-02-28T08:50:20;10.30;;;9.23;;
7965;SDS011;4028;43.272;26.932;2023-02-28T08:52:46;11.63;;;10.43;;
7965;SDS011;4028;43.272;26.932;2023-02-28T08:55:12;12.00;;;10.83;;
7965;SDS011;4028;43.272;26.932;2023-02-28T08:57:37;12.87;;;10.63;;
7965;SDS011;4028;43.272;26.932;2023-02-28T09:00:03;12.63;;;10.97;;
7965;SDS011;4028;43.272;26.932;2023-02-28T09:02:29;12.30;;;11.00;;
7965;SDS011;4028;43.272;26.932;2023-02-28T09:04:56;12.47;;;11.17;;
7965;SDS011;4028;43.272;26.932;2023-02-28T09:07:23;13.37;;;11.97;;
7965;SDS011;4028;43.272;26.932;2023-02-28T09:09:48;13.83;;;12.30;;
7965;SDS011;4028;43.272;26.932;2023-02-28T09:12:24;13.40;;;11.87;;
7965;SDS011;4028;43.272;26.932;2023-02-28T09:14:50;16.37;;;13.13;;
7965;SDS011;4028;43.272;26.932;2023-02-28T09:17:16;15.33;;;13.50;;
7965;SDS011;4028;43.272;26.932;2023-02-28T09:19:42;16.30;;;12.87;;
7965;SDS011;4028;43.272;26.932;2023-02-28T09:22:08;14.73;;;13.03;;
7965;SDS011;4028;43.272;26.932;2023-02-28T09:24:35;16.03;;;12.87;;
7965;SDS011;4028;43.272;26.932;2023-02-28T09:27:02;14.97;;;13.47;;
7965;SDS011;4028;43.272;26.932;2023-02-28T09:29:27;16.30;;;14.03;;
7965;SDS011;4028;43.272;26.932;2023-02-28T09:31:53;16.00;;;13.77;;
7965;SDS011;4028;43.272;26.932;2023-02-28T09:34:18;18.43;;;15.33;;
7965;SDS011;4028;43.272;26.932;2023-02-28T09:36:44;17.80;;;15.57;;
7965;SDS011;4028;43.272;26.932;2023-02-28T09:39:10;19.70;;;14.80;;
7965;SDS011;4028;43.272;26.932;2023-02-28T09:41:37;18.87;;;15.77;;
7965;SDS011;4028;43.272;26.932;2023-02-28T09:44:12;18.83;;;14.40;;
7965;SDS011;4028;43.272;26.932;2023-02-28T09:46:49;18.37;;;16.03;;
7965;SDS011;4028;43.272;26.932;2023-02-28T09:49:26;21.10;;;16.20;;
7965;SDS011;4028;43.272;26.932;2023-02-28T09:52:09;18.73;;;16.47;;
7965;SDS011;4028;43.272;26.932;2023-02-28T09:54:38;19.10;;;16.93;;
7965;SDS011;4028;43.272;26.932;2023-02-28T10:02:21;22.57;;;17.23;;
7965;SDS011;4028;43.272;26.932;2023-02-28T10:05:14;19.90;;;17.10;;
7965;SDS011;4028;43.272;26.932;2023-02-28T10:10:36;21.33;;;17.90;;
7965;SDS011;4028;43.272;26.932;2023-02-28T10:13:04;23.63;;;18.53;;
7965;SDS011;4028;43.272;26.932;2023-02-28T10:15:37;27.03;;;19.43;;
7965;SDS011;4028;43.272;26.932;2023-02-28T10:18:04;25.10;;;20.53;;
7965;SDS011;4028;43.272;26.932;2023-02-28T10:20:35;32.20;;;23.40;;
7965;SDS011;4028;43.272;26.932;2023-02-28T10:25:38;31.60;;;23.03;;
7965;SDS011;4028;43.272;26.932;2023-02-28T10:30:32;29.10;;;20.90;;
7965;SDS011;4028;43.272;26.932;2023-02-28T10:32:58;26.90;;;21.77;;
7965;SDS011;4028;43.272;26.932;2023-02-28T10:35:24;26.33;;;21.37;;
7965;SDS011;4028;43.272;26.932;2023-02-28T10:37:53;30.73;;;21.63;;
7965;SDS011;4028;43.272;26.932;2023-02-28T10:43:00;25.80;;;20.63;;
7965;SDS011;4028;43.272;26.932;2023-02-28T10:45:26;26.10;;;20.80;;
7965;SDS011;4028;43.272;26.932;2023-02-28T10:47:58;25.87;;;20.57;;
7965;SDS011;4028;43.272;26.932;2023-02-28T10:50:42;25.20;;;20.33;;
7965;SDS011;4028;43.272;26.932;2023-02-28T10:56:01;27.33;;;21.60;;
7965;SDS011;4028;43.272;26.932;2023-02-28T10:58:31;23.83;;;20.60;;
7965;SDS011;4028;43.272;26.932;2023-02-28T11:03:47;29.63;;;21.70;;
7965;SDS011;4028;43.272;26.932;2023-02-28T11:06:17;29.70;;;22.33;;
7965;SDS011;4028;43.272;26.932;2023-02-28T11:08:47;32.30;;;23.70;;
7965;SDS011;4028;43.272;26.932;2023-02-28T11:11:20;26.80;;;20.80;;
7965;SDS011;4028;43.272;26.932;2023-02-28T11:13:48;30.03;;;22.17;;
7965;SDS011;4028;43.272;26.932;2023-02-28T11:16:17;27.33;;;20.57;;
7965;SDS011;4028;43.272;26.932;2023-02-28T11:18:46;23.83;;;19.87;;
7965;SDS011;4028;43.272;26.932;2023-02-28T11:24:19;24.77;;;20.13;;
7965;SDS011;4028;43.272;26.932;2023-02-28T11:26:46;26.37;;;20.67;;
7965;SDS011;4028;43.272;26.932;2023-02-28T11:34:34;24.83;;;21.13;;
7965;SDS011;4028;43.272;26.932;2023-02-28T11:37:01;25.90;;;20.80;;
7965;SDS011;4028;43.272;26.932;2023-02-28T11:39:30;23.47;;;19.67;;
7965;SDS011;4028;43.272;26.932;2023-02-28T11:44:47;26.40;;;20.90;;
7965;SDS011;4028;43.272;26.932;2023-02-28T11:49:52;24.57;;;20.03;;
7965;SDS011;4028;43.272;26.932;2023-02-28T11:58:12;25.03;;;19.07;;
7965;SDS011;4028;43.272;26.932;2023-02-28T12:12:04;24.70;;;17.90;;
7965;SDS011;4028;43.272;26.932;2023-02-28T12:20:35;23.43;;;18.17;;
7965;SDS011;4028;43.272;26.932;2023-02-28T12:25:48;21.40;;;16.53;;
7965;SDS011;4028;43.272;26.932;2023-02-28T12:28:26;20.63;;;16.97;;
7965;SDS011;4028;43.272;26.932;2023-02-28T12:31:08;18.93;;;15.87;;
7965;SDS011;4028;43.272;26.932;2023-02-28T12:33:41;23.43;;;17.40;;
7965;SDS011;4028;43.272;26.932;2023-02-28T12:36:11;26.00;;;17.80;;
7965;SDS011;4028;43.272;26.932;2023-02-28T12:38:45;20.83;;;15.73;;
7965;SDS011;4028;43.272;26.932;2023-02-28T12:41:17;22.13;;;16.60;;
7965;SDS011;4028;43.272;26.932;2023-02-28T12:43:55;26.00;;;18.17;;
7965;SDS011;4028;43.272;26.932;2023-02-28T12:46:47;22.20;;;17.57;;
7965;SDS011;4028;43.272;26.932;2023-02-28T12:49:16;20.67;;;16.37;;
7965;SDS011;4028;43.272;26.932;2023-02-28T12:52:03;18.93;;;16.00;;
7965;SDS011;4028;43.272;26.932;2023-02-28T13:03:29;20.17;;;16.50;;
7965;SDS011;4028;43.272;26.932;2023-02-28T13:11:29;18.37;;;15.40;;
7965;SDS011;4028;43.272;26.932;2023-02-28T13:14:05;23.37;;;15.50;;
7965;SDS011;4028;43.272;26.932;2023-02-28T13:19:37;18.57;;;16.57;;
7965;SDS011;4028;43.272;26.932;2023-02-28T13:27:21;19.10;;;15.17;;
7965;SDS011;4028;43.272;26.932;2023-02-28T13:29:50;19.90;;;15.23;;
7965;SDS011;4028;43.272;26.932;2023-02-28T13:32:28;18.30;;;16.40;;
7965;SDS011;4028;43.272;26.932;2023-02-28T13:42:33;17.77;;;14.83;;
7965;SDS011;4028;43.272;26.932;2023-02-28T13:47:28;17.00;;;14.03;;
7965;SDS011;4028;43.272;26.932;2023-02-28T13:55:27;19.00;;;13.80;;
7965;SDS011;4028;43.272;26.932;2023-02-28T14:03:53;18.77;;;14.37;;
7965;SDS011;4028;43.272;26.932;2023-02-28T14:06:32;19.13;;;13.17;;
7965;SDS011;4028;43.272;26.932;2023-02-28T14:11:44;18.30;;;16.07;;
7965;SDS011;4028;43.272;26.932;2023-02-28T14:14:53;26.20;;;17.10;;
7965;SDS011;4028;43.272;26.932;2023-02-28T14:17:03;22.53;;;14.20;;
7965;SDS011;4028;43.272;26.932;2023-02-28T14:19:33;21.23;;;13.93;;
7965;SDS011;4028;43.272;26.932;2023-02-28T14:25:22;17.33;;;14.07;;
7965;SDS011;4028;43.272;26.932;2023-02-28T14:30:26;14.93;;;12.00;;
7965;SDS011;4028;43.272;26.932;2023-02-28T14:36:06;16.67;;;14.83;;
7965;SDS011;4028;43.272;26.932;2023-02-28T14:38:47;16.50;;;13.10;;
7965;SDS011;4028;43.272;26.932;2023-02-28T14:41:37;16.23;;;12.63;;
7965;SDS011;4028;43.272;26.932;2023-02-28T14:46:46;15.53;;;11.87;;
7965;SDS011;4028;43.272;26.932;2023-02-28T14:49:31;13.57;;;12.17;;
7965;SDS011;4028;43.272;26.932;2023-02-28T14:52:02;15.77;;;13.63;;
7965;SDS011;4028;43.272;26.932;2023-02-28T14:54:28;15.67;;;13.83;;
7965;SDS011;4028;43.272;26.932;2023-02-28T14:56:54;19.73;;;13.30;;
7965;SDS011;4028;43.272;26.932;2023-02-28T14:59:30;15.57;;;12.43;;
7965;SDS011;4028;43.272;26.932;2023-02-28T15:02:16;15.60;;;12.10;;
7965;SDS011;4028;43.272;26.932;2023-02-28T15:04:51;16.70;;;12.60;;
7965;SDS011;4028;43.272;26.932;2023-02-28T15:07:25;14.77;;;11.93;;
7965;SDS011;4028;43.272;26.932;2023-02-28T15:12:53;16.17;;;13.47;;
7965;SDS011;4028;43.272;26.932;2023-02-28T15:15:21;14.50;;;12.70;;
7965;SDS011;4028;43.272;26.932;2023-02-28T15:18:07;14.87;;;12.47;;
7965;SDS011;4028;43.272;26.932;2023-02-28T15:20:40;16.53;;;12.63;;
7965;SDS011;4028;43.272;26.932;2023-02-28T15:23:07;19.70;;;13.57;;
7965;SDS011;4028;43.272;26.932;2023-02-28T15:25:34;17.37;;;13.83;;
7965;SDS011;4028;43.272;26.932;2023-02-28T15:28:00;21.30;;;14.90;;
7965;SDS011;4028;43.272;26.932;2023-02-28T15:30:26;18.60;;;14.37;;
7965;SDS011;4028;43.272;26.932;2023-02-28T15:33:06;17.53;;;13.57;;
7965;SDS011;4028;43.272;26.932;2023-02-28T15:35:51;21.17;;;14.33;;
7965;SDS011;4028;43.272;26.932;2023-02-28T15:38:28;17.97;;;13.23;;
7965;SDS011;4028;43.272;26.932;2023-02-28T15:40:55;18.77;;;13.77;;
7965;SDS011;4028;43.272;26.932;2023-02-28T15:43:23;15.80;;;13.73;;
7965;SDS011;4028;43.272;26.932;2023-02-28T15:46:04;14.40;;;12.20;;
7965;SDS011;4028;43.272;26.932;2023-02-28T15:51:09;19.63;;;12.90;;
7965;SDS011;4028;43.272;26.932;2023-02-28T15:53:40;15.77;;;11.73;;
7965;SDS011;4028;43.272;26.932;2023-02-28T15:56:35;14.13;;;12.63;;
7965;SDS011;4028;43.272;26.932;2023-02-28T15:59:07;15.53;;;12.87;;
7965;SDS011;4028;43.272;26.932;2023-02-28T16:01:39;14.63;;;13.17;;
7965;SDS011;4028;43.272;26.932;2023-02-28T16:04:14;12.83;;;11.47;;
7965;SDS011;4028;43.272;26.932;2023-02-28T16:06:42;14.93;;;12.20;;
7965;SDS011;4028;43.272;26.932;2023-02-28T16:09:27;15.87;;;12.43;;
7965;SDS011;4028;43.272;26.932;2023-02-28T16:11:55;15.00;;;13.13;;
7965;SDS011;4028;43.272;26.932;2023-02-28T16:14:25;15.87;;;14.17;;
7965;SDS011;4028;43.272;26.932;2023-02-28T16:17:02;16.33;;;14.03;;
7965;SDS011;4028;43.272;26.932;2023-02-28T16:19:29;18.90;;;14.47;;
7965;SDS011;4028;43.272;26.932;2023-02-28T16:21:56;19.17;;;13.93;;
7965;SDS011;4028;43.272;26.932;2023-02-28T16:24:21;19.03;;;13.80;;
7965;SDS011;4028;43.272;26.932;2023-02-28T16:26:47;18.13;;;15.37;;
7965;SDS011;4028;43.272;26.932;2023-02-28T16:29:23;17.13;;;15.37;;
7965;SDS011;4028;43.272;26.932;2023-02-28T16:31:51;18.07;;;15.80;;
7965;SDS011;4028;43.272;26.932;2023-02-28T16:34:18;27.63;;;15.87;;
7965;SDS011;4028;43.272;26.932;2023-02-28T16:36:45;19.27;;;15.13;;
7965;SDS011;4028;43.272;26.932;2023-02-28T16:39:12;15.80;;;13.87;;
7965;SDS011;4028;43.272;26.932;2023-02-28T16:41:37;17.13;;;13.27;;
7965;SDS011;4028;43.272;26.932;2023-02-28T16:44:08;17.83;;;13.87;;
7965;SDS011;4028;43.272;26.932;2023-02-28T16:46:38;15.80;;;13.60;;
7965;SDS011;4028;43.272;26.932;2023-02-28T16:49:03;15.83;;;14.03;;
7965;SDS011;4028;43.272;26.932;2023-02-28T16:51:29;16.30;;;12.80;;
7965;SDS011;4028;43.272;26.932;2023-02-28T16:53:54;14.83;;;13.23;;
7965;SDS011;4028;43.272;26.932;2023-02-28T16:56:20;15.87;;;13.23;;
7965;SDS011;4028;43.272;26.932;2023-02-28T16:58:49;14.70;;;12.83;;
7965;SDS011;4028;43.272;26.932;2023-02-28T17:01:15;15.90;;;13.40;;
7965;SDS011;4028;43.272;26.932;2023-02-28T17:03:42;19.07;;;14.87;;
7965;SDS011;4028;43.272;26.932;2023-02-28T17:06:21;17.33;;;14.73;;
7965;SDS011;4028;43.272;26.932;2023-02-28T17:08:51;16.23;;;14.43;;
7965;SDS011;4028;43.272;26.932;2023-02-28T17:11:17;18.13;;;14.73;;
7965;SDS011;4028;43.272;26.932;2023-02-28T17:13:43;22.43;;;16.73;;
7965;SDS011;4028;43.272;26.932;2023-02-28T17:18:55;21.80;;;17.17;;
7965;SDS011;4028;43.272;26.932;2023-02-28T17:21:23;22.93;;;17.70;;
7965;SDS011;4028;43.272;26.932;2023-02-28T17:23:48;26.10;;;18.13;;
7965;SDS011;4028;43.272;26.932;2023-02-28T17:26:15;24.40;;;18.37;;
7965;SDS011;4028;43.272;26.932;2023-02-28T17:28:45;23.60;;;19.30;;
7965;SDS011;4028;43.272;26.932;2023-02-28T17:31:13;29.67;;;21.37;;
7965;SDS011;4028;43.272;26.932;2023-02-28T17:33:39;24.70;;;17.90;;
7965;SDS011;4028;43.272;26.932;2023-02-28T17:36:05;23.80;;;16.80;;
7965;SDS011;4028;43.272;26.932;2023-02-28T17:38:31;22.40;;;16.60;;
7965;SDS011;4028;43.272;26.932;2023-02-28T17:40:57;24.73;;;18.60;;
7965;SDS011;4028;43.272;26.932;2023-02-28T17:43:25;26.13;;;17.80;;
7965;SDS011;4028;43.272;26.932;2023-02-28T17:45:52;22.67;;;18.77;;
7965;SDS011;4028;43.272;26.932;2023-02-28T17:48:18;21.80;;;16.87;;
7965;SDS011;4028;43.272;26.932;2023-02-28T17:50:43;27.33;;;18.50;;
7965;SDS011;4028;43.272;26.932;2023-02-28T17:53:09;22.20;;;17.17;;
7965;SDS011;4028;43.272;26.932;2023-02-28T17:55:35;22.63;;;18.13;;